sensor_id;sensor_type;location;lat;lon;timestamp;P1;durP1;ratioP1;P2;durP2;ratioP2
20721;SDS011;10522;52.198;9.890;2023-02-03T00:00:08;10.23;;;6.27;;
20721;SDS011;10522;52.198;9.890;2023-02-03T00:02:34;11.53;;;6.47;;
20721;SDS011;10522;52.198;9.890;2023-02-03T00:05:00;12.53;;;7.70;;
20721;SDS011;10522;52.198;9.890;2023-02-03T00:07:26;16.17;;;9.53;;
20721;SDS011;10522;52.198;9.890;2023-02-03T00:09:51;16.10;;;8.97;;
20721;SDS011;10522;52.198;9.890;2023-02-03T00:12:17;14.50;;;9.50;;
20721;SDS011;10522;52.198;9.890;2023-02-03T00:14:43;18.87;;;11.67;;
20721;SDS011;10522;52.198;9.890;2023-02-03T00:17:08;17.47;;;10.83;;
20721;SDS011;10522;52.198;9.890;2023-02-03T00:19:34;18.37;;;9.97;;
20721;SDS011;10522;52.198;9.890;2023-02-03T00:21:59;20.43;;;10.93;;
20721;SDS011;10522;52.198;9.890;2023-02-03T00:24:25;18.97;;;12.27;;
20721;SDS011;10522;52.198;9.890;2023-02-03T00:26:51;21.80;;;12.43;;
20721;SDS011;10522;52.198;9.890;2023-02-03T00:29:16;19.20;;;12.10;;
20721;SDS011;10522;52.198;9.890;2023-02-03T00:31:42;21.47;;;12.43;;
20721;SDS011;10522;52.198;9.890;2023-02-03T00:34:08;23.80;;;14.60;;
20721;SDS011;10522;52.198;9.890;2023-02-03T00:36:34;22.00;;;13.37;;
20721;SDS011;10522;52.198;9.890;2023-02-03T00:39:00;26.77;;;15.93;;
20721;SDS011;10522;52.198;9.890;2023-02-03T00:41:27;21.03;;;14.00;;
20721;SDS011;10522;52.198;9.890;2023-02-03T00:43:55;20.47;;;12.90;;
20721;SDS011;10522;52.198;9.890;2023-02-03T00:46:21;22.97;;;15.60;;
20721;SDS011;10522;52.198;9.890;2023-02-03T00:48:46;25.03;;;15.90;;
20721;SDS011;10522;52.198;9.890;2023-02-03T00:51:12;25.70;;;15.60;;
20721;SDS011;10522;52.198;9.890;2023-02-03T00:53:38;33.67;;;16.60;;
20721;SDS011;10522;52.198;9.890;2023-02-03T00:56:04;27.20;;;16.93;;
20721;SDS011;10522;52.198;9.890;2023-02-03T00:58:36;31.83;;;17.77;;
20721;SDS011;10522;52.198;9.890;2023-02-03T01:01:03;27.43;;;17.43;;
20721;SDS011;10522;52.198;9.890;2023-02-03T01:03:29;26.27;;;17.30;;
20721;SDS011;10522;52.198;9.890;2023-02-03T01:05:54;29.67;;;18.47;;
20721;SDS011;10522;52.198;9.890;2023-02-03T01:08:20;27.13;;;15.27;;
20721;SDS011;10522;52.198;9.890;2023-02-03T01:10:45;21.80;;;13.80;;
20721;SDS011;10522;52.198;9.890;2023-02-03T01:13:11;22.57;;;13.93;;
20721;SDS011;10522;52.198;9.890;2023-02-03T01:15:36;25.87;;;13.63;;
20721;SDS011;10522;52.198;9.890;2023-02-03T01:18:02;22.63;;;12.53;;
20721;SDS011;10522;52.198;9.890;2023-02-03T01:20:28;27.53;;;14.27;;
20721;SDS011;10522;52.198;9.890;2023-02-03T01:22:53;21.33;;;12.60;;
20721;SDS011;10522;52.198;9.890;2023-02-03T01:25:19;21.97;;;13.07;;
20721;SDS011;10522;52.198;9.890;2023-02-03T01:27:44;21.10;;;12.57;;
20721;SDS011;10522;52.198;9.890;2023-02-03T01:30:10;21.20;;;12.93;;
20721;SDS011;10522;52.198;9.890;2023-02-03T01:32:36;23.03;;;14.30;;
20721;SDS011;10522;52.198;9.890;2023-02-03T01:35:01;26.30;;;13.73;;
20721;SDS011;10522;52.198;9.890;2023-02-03T01:37:27;20.13;;;11.23;;
20721;SDS011;10522;52.198;9.890;2023-02-03T01:39:52;19.63;;;11.83;;
20721;SDS011;10522;52.198;9.890;2023-02-03T01:42:18;21.20;;;13.27;;
20721;SDS011;10522;52.198;9.890;2023-02-03T01:49:53;21.57;;;12.57;;
20721;SDS011;10522;52.198;9.890;2023-02-03T01:52:29;23.83;;;12.83;;
20721;SDS011;10522;52.198;9.890;2023-02-03T01:54:56;15.23;;;9.23;;
20721;SDS011;10522;52.198;9.890;2023-02-03T01:57:28;18.77;;;10.70;;
20721;SDS011;10522;52.198;9.890;2023-02-03T02:00:01;17.00;;;11.30;;
20721;SDS011;10522;52.198;9.890;2023-02-03T02:02:30;22.30;;;12.87;;
20721;SDS011;10522;52.198;9.890;2023-02-03T02:07:28;18.57;;;10.90;;
20721;SDS011;10522;52.198;9.890;2023-02-03T02:09:56;16.27;;;9.97;;
20721;SDS011;10522;52.198;9.890;2023-02-03T02:12:22;13.67;;;9.50;;
20721;SDS011;10522;52.198;9.890;2023-02-03T02:14:47;15.23;;;10.77;;
20721;SDS011;10522;52.198;9.890;2023-02-03T02:25:47;15.57;;;10.07;;
20721;SDS011;10522;52.198;9.890;2023-02-03T02:34:20;16.80;;;8.73;;
20721;SDS011;10522;52.198;9.890;2023-02-03T02:36:56;19.13;;;10.83;;
20721;SDS011;10522;52.198;9.890;2023-02-03T02:42:27;15.80;;;10.50;;
20721;SDS011;10522;52.198;9.890;2023-02-03T02:45:04;11.87;;;7.70;;
20721;SDS011;10522;52.198;9.890;2023-02-03T02:47:41;18.43;;;9.90;;
20721;SDS011;10522;52.198;9.890;2023-02-03T02:50:13;14.27;;;8.93;;
20721;SDS011;10522;52.198;9.890;2023-02-03T02:52:47;18.40;;;10.33;;
20721;SDS011;10522;52.198;9.890;2023-02-03T02:55:19;12.00;;;7.67;;
20721;SDS011;10522;52.198;9.890;2023-02-03T02:57:54;12.77;;;9.00;;
20721;SDS011;10522;52.198;9.890;2023-02-03T03:00:22;19.97;;;9.57;;
20721;SDS011;10522;52.198;9.890;2023-02-03T03:02:48;17.77;;;8.13;;
20721;SDS011;10522;52.198;9.890;2023-02-03T03:05:14;12.33;;;7.63;;
20721;SDS011;10522;52.198;9.890;2023-02-03T03:07:58;19.83;;;7.07;;
20721;SDS011;10522;52.198;9.890;2023-02-03T03:10:27;11.27;;;8.43;;
20721;SDS011;10522;52.198;9.890;2023-02-03T03:12:56;11.30;;;8.00;;
20721;SDS011;10522;52.198;9.890;2023-02-03T03:15:26;15.20;;;7.80;;
20721;SDS011;10522;52.198;9.890;2023-02-03T03:20:44;8.53;;;5.83;;
20721;SDS011;10522;52.198;9.890;2023-02-03T03:23:19;10.50;;;6.70;;
20721;SDS011;10522;52.198;9.890;2023-02-03T03:25:53;9.30;;;6.27;;
20721;SDS011;10522;52.198;9.890;2023-02-03T03:28:26;10.77;;;5.00;;
20721;SDS011;10522;52.198;9.890;2023-02-03T03:30:56;12.23;;;7.57;;
20721;SDS011;10522;52.198;9.890;2023-02-03T03:33:22;10.83;;;6.87;;
20721;SDS011;10522;52.198;9.890;2023-02-03T03:35:51;10.57;;;7.17;;
20721;SDS011;10522;52.198;9.890;2023-02-03T03:38:41;9.17;;;6.50;;
20721;SDS011;10522;52.198;9.890;2023-02-03T03:41:15;12.87;;;6.73;;
20721;SDS011;10522;52.198;9.890;2023-02-03T03:43:49;13.17;;;8.20;;
20721;SDS011;10522;52.198;9.890;2023-02-03T03:46:22;12.67;;;7.23;;
20721;SDS011;10522;52.198;9.890;2023-02-03T03:48:56;12.87;;;6.47;;
20721;SDS011;10522;52.198;9.890;2023-02-03T03:51:30;11.33;;;7.50;;
20721;SDS011;10522;52.198;9.890;2023-02-03T03:54:07;11.80;;;6.60;;
20721;SDS011;10522;52.198;9.890;2023-02-03T03:56:37;12.10;;;7.10;;
20721;SDS011;10522;52.198;9.890;2023-02-03T03:59:08;14.67;;;7.07;;
20721;SDS011;10522;52.198;9.890;2023-02-03T04:01:37;9.97;;;5.97;;
20721;SDS011;10522;52.198;9.890;2023-02-03T04:04:05;11.33;;;7.37;;
20721;SDS011;10522;52.198;9.890;2023-02-03T04:06:33;16.00;;;8.30;;
20721;SDS011;10522;52.198;9.890;2023-02-03T04:09:00;11.83;;;7.00;;
20721;SDS011;10522;52.198;9.890;2023-02-03T04:11:26;10.43;;;7.13;;
20721;SDS011;10522;52.198;9.890;2023-02-03T04:14:10;22.20;;;6.57;;
20721;SDS011;10522;52.198;9.890;2023-02-03T04:16:35;11.93;;;7.27;;
20721;SDS011;10522;52.198;9.890;2023-02-03T04:19:01;10.70;;;6.57;;
20721;SDS011;10522;52.198;9.890;2023-02-03T04:21:26;8.70;;;6.00;;
20721;SDS011;10522;52.198;9.890;2023-02-03T04:23:52;16.20;;;8.00;;
20721;SDS011;10522;52.198;9.890;2023-02-03T04:26:20;16.00;;;8.77;;
20721;SDS011;10522;52.198;9.890;2023-02-03T04:28:46;8.87;;;6.13;;
20721;SDS011;10522;52.198;9.890;2023-02-03T04:31:11;8.20;;;5.83;;
20721;SDS011;10522;52.198;9.890;2023-02-03T04:33:37;12.33;;;7.27;;
20721;SDS011;10522;52.198;9.890;2023-02-03T04:36:02;15.17;;;7.80;;
20721;SDS011;10522;52.198;9.890;2023-02-03T04:38:28;15.80;;;7.73;;
20721;SDS011;10522;52.198;9.890;2023-02-03T04:40:54;11.10;;;5.90;;
20721;SDS011;10522;52.198;9.890;2023-02-03T04:43:19;14.50;;;7.20;;
20721;SDS011;10522;52.198;9.890;2023-02-03T04:45:45;13.43;;;5.90;;
20721;SDS011;10522;52.198;9.890;2023-02-03T04:48:10;12.03;;;6.93;;
20721;SDS011;10522;52.198;9.890;2023-02-03T04:50:36;11.87;;;5.33;;
20721;SDS011;10522;52.198;9.890;2023-02-03T04:53:01;8.70;;;5.47;;
20721;SDS011;10522;52.198;9.890;2023-02-03T04:55:27;13.03;;;5.07;;
20721;SDS011;10522;52.198;9.890;2023-02-03T04:57:56;8.67;;;6.67;;
20721;SDS011;10522;52.198;9.890;2023-02-03T05:00:23;10.00;;;6.13;;
20721;SDS011;10522;52.198;9.890;2023-02-03T05:02:50;8.73;;;5.60;;
20721;SDS011;10522;52.198;9.890;2023-02-03T05:05:15;8.10;;;5.00;;
20721;SDS011;10522;52.198;9.890;2023-02-03T05:07:41;6.30;;;4.80;;
20721;SDS011;10522;52.198;9.890;2023-02-03T05:10:08;9.77;;;5.83;;
20721;SDS011;10522;52.198;9.890;2023-02-03T05:12:34;9.50;;;5.10;;
20721;SDS011;10522;52.198;9.890;2023-02-03T05:14:59;13.63;;;6.70;;
20721;SDS011;10522;52.198;9.890;2023-02-03T05:17:25;14.30;;;6.70;;
20721;SDS011;10522;52.198;9.890;2023-02-03T05:19:51;8.57;;;6.20;;
20721;SDS011;10522;52.198;9.890;2023-02-03T05:22:16;16.53;;;6.50;;
20721;SDS011;10522;52.198;9.890;2023-02-03T05:24:42;15.47;;;6.40;;
20721;SDS011;10522;52.198;9.890;2023-02-03T05:27:07;11.83;;;6.23;;
20721;SDS011;10522;52.198;9.890;2023-02-03T05:29:33;11.33;;;7.37;;
20721;SDS011;10522;52.198;9.890;2023-02-03T05:31:58;13.17;;;6.80;;
20721;SDS011;10522;52.198;9.890;2023-02-03T05:34:24;6.67;;;5.00;;
20721;SDS011;10522;52.198;9.890;2023-02-03T05:36:50;11.50;;;6.33;;
20721;SDS011;10522;52.198;9.890;2023-02-03T05:39:15;12.13;;;5.23;;
20721;SDS011;10522;52.198;9.890;2023-02-03T05:41:41;15.40;;;6.70;;
20721;SDS011;10522;52.198;9.890;2023-02-03T05:44:19;11.57;;;5.67;;
20721;SDS011;10522;52.198;9.890;2023-02-03T05:46:46;6.77;;;4.73;;
20721;SDS011;10522;52.198;9.890;2023-02-03T05:49:13;9.30;;;4.30;;
20721;SDS011;10522;52.198;9.890;2023-02-03T05:51:39;7.57;;;4.60;;
20721;SDS011;10522;52.198;9.890;2023-02-03T05:54:05;8.13;;;4.80;;
20721;SDS011;10522;52.198;9.890;2023-02-03T05:56:32;5.70;;;3.23;;
20721;SDS011;10522;52.198;9.890;2023-02-03T05:58:57;7.53;;;4.40;;
20721;SDS011;10522;52.198;9.890;2023-02-03T06:01:23;10.13;;;4.10;;
20721;SDS011;10522;52.198;9.890;2023-02-03T06:03:49;9.53;;;4.87;;
20721;SDS011;10522;52.198;9.890;2023-02-03T06:06:15;7.53;;;3.03;;
20721;SDS011;10522;52.198;9.890;2023-02-03T06:08:41;9.40;;;4.23;;
20721;SDS011;10522;52.198;9.890;2023-02-03T06:11:07;9.33;;;5.10;;
20721;SDS011;10522;52.198;9.890;2023-02-03T06:13:33;19.20;;;4.03;;
20721;SDS011;10522;52.198;9.890;2023-02-03T06:15:58;11.00;;;4.97;;
20721;SDS011;10522;52.198;9.890;2023-02-03T06:18:24;13.97;;;4.53;;
20721;SDS011;10522;52.198;9.890;2023-02-03T06:20:50;11.97;;;5.80;;
20721;SDS011;10522;52.198;9.890;2023-02-03T06:23:15;7.93;;;4.50;;
20721;SDS011;10522;52.198;9.890;2023-02-03T06:25:42;14.13;;;5.17;;
20721;SDS011;10522;52.198;9.890;2023-02-03T06:28:17;6.53;;;4.10;;
20721;SDS011;10522;52.198;9.890;2023-02-03T06:30:43;6.57;;;3.63;;
20721;SDS011;10522;52.198;9.890;2023-02-03T06:33:08;10.70;;;4.73;;
20721;SDS011;10522;52.198;9.890;2023-02-03T06:35:34;8.77;;;4.30;;
20721;SDS011;10522;52.198;9.890;2023-02-03T06:38:00;6.37;;;4.20;;
20721;SDS011;10522;52.198;9.890;2023-02-03T06:40:25;6.73;;;3.80;;
20721;SDS011;10522;52.198;9.890;2023-02-03T06:42:51;8.70;;;4.90;;
20721;SDS011;10522;52.198;9.890;2023-02-03T06:45:17;7.50;;;4.13;;
20721;SDS011;10522;52.198;9.890;2023-02-03T06:47:43;7.27;;;4.10;;
20721;SDS011;10522;52.198;9.890;2023-02-03T06:50:10;12.80;;;4.73;;
20721;SDS011;10522;52.198;9.890;2023-02-03T06:52:38;12.63;;;4.20;;
20721;SDS011;10522;52.198;9.890;2023-02-03T06:55:04;7.90;;;4.43;;
20721;SDS011;10522;52.198;9.890;2023-02-03T06:57:30;10.43;;;3.73;;
20721;SDS011;10522;52.198;9.890;2023-02-03T06:59:56;7.90;;;3.70;;
20721;SDS011;10522;52.198;9.890;2023-02-03T07:02:22;10.33;;;4.03;;
20721;SDS011;10522;52.198;9.890;2023-02-03T07:04:48;7.00;;;3.87;;
20721;SDS011;10522;52.198;9.890;2023-02-03T07:07:13;5.43;;;3.23;;
20721;SDS011;10522;52.198;9.890;2023-02-03T07:09:39;7.47;;;3.70;;
20721;SDS011;10522;52.198;9.890;2023-02-03T07:12:05;7.13;;;3.30;;
20721;SDS011;10522;52.198;9.890;2023-02-03T07:14:32;7.53;;;3.60;;
20721;SDS011;10522;52.198;9.890;2023-02-03T07:17:00;5.03;;;3.40;;
20721;SDS011;10522;52.198;9.890;2023-02-03T07:19:26;6.97;;;4.50;;
20721;SDS011;10522;52.198;9.890;2023-02-03T07:21:52;7.87;;;4.60;;
20721;SDS011;10522;52.198;9.890;2023-02-03T07:24:17;5.73;;;4.13;;
20721;SDS011;10522;52.198;9.890;2023-02-03T07:26:43;6.93;;;4.70;;
20721;SDS011;10522;52.198;9.890;2023-02-03T07:29:08;8.20;;;4.20;;
20721;SDS011;10522;52.198;9.890;2023-02-03T07:31:34;10.13;;;4.00;;
20721;SDS011;10522;52.198;9.890;2023-02-03T07:34:00;5.87;;;4.13;;
20721;SDS011;10522;52.198;9.890;2023-02-03T07:36:26;4.53;;;3.37;;
20721;SDS011;10522;52.198;9.890;2023-02-03T07:38:52;5.23;;;4.50;;
20721;SDS011;10522;52.198;9.890;2023-02-03T07:41:19;7.10;;;3.87;;
20721;SDS011;10522;52.198;9.890;2023-02-03T07:43:45;5.37;;;4.03;;
20721;SDS011;10522;52.198;9.890;2023-02-03T07:46:10;4.53;;;3.27;;
20721;SDS011;10522;52.198;9.890;2023-02-03T07:48:36;6.63;;;3.33;;
20721;SDS011;10522;52.198;9.890;2023-02-03T07:51:02;3.87;;;2.63;;
20721;SDS011;10522;52.198;9.890;2023-02-03T07:53:27;5.33;;;3.13;;
20721;SDS011;10522;52.198;9.890;2023-02-03T07:55:53;2.77;;;2.30;;
20721;SDS011;10522;52.198;9.890;2023-02-03T07:58:19;3.33;;;2.40;;
20721;SDS011;10522;52.198;9.890;2023-02-03T08:00:44;2.63;;;2.43;;
20721;SDS011;10522;52.198;9.890;2023-02-03T08:03:10;2.60;;;1.87;;
20721;SDS011;10522;52.198;9.890;2023-02-03T08:05:36;3.80;;;2.90;;
20721;SDS011;10522;52.198;9.890;2023-02-03T08:08:01;3.13;;;1.77;;
20721;SDS011;10522;52.198;9.890;2023-02-03T08:10:27;3.33;;;2.17;;
20721;SDS011;10522;52.198;9.890;2023-02-03T08:12:53;2.83;;;2.00;;
20721;SDS011;10522;52.198;9.890;2023-02-03T08:15:19;4.37;;;2.20;;
20721;SDS011;10522;52.198;9.890;2023-02-03T08:17:45;2.70;;;2.20;;
20721;SDS011;10522;52.198;9.890;2023-02-03T08:20:13;3.57;;;1.97;;
20721;SDS011;10522;52.198;9.890;2023-02-03T08:22:38;5.50;;;2.10;;
20721;SDS011;10522;52.198;9.890;2023-02-03T08:25:04;3.83;;;2.23;;
20721;SDS011;10522;52.198;9.890;2023-02-03T08:27:30;2.70;;;2.20;;
20721;SDS011;10522;52.198;9.890;2023-02-03T08:29:56;3.27;;;2.30;;
20721;SDS011;10522;52.198;9.890;2023-02-03T08:32:22;2.60;;;2.17;;
20721;SDS011;10522;52.198;9.890;2023-02-03T08:34:49;5.50;;;2.30;;
20721;SDS011;10522;52.198;9.890;2023-02-03T08:37:16;1.97;;;1.73;;
20721;SDS011;10522;52.198;9.890;2023-02-03T08:39:43;2.40;;;1.83;;
20721;SDS011;10522;52.198;9.890;2023-02-03T08:42:09;6.03;;;2.07;;
20721;SDS011;10522;52.198;9.890;2023-02-03T08:44:35;1.70;;;1.60;;
20721;SDS011;10522;52.198;9.890;2023-02-03T08:47:03;4.40;;;2.20;;
20721;SDS011;10522;52.198;9.890;2023-02-03T08:49:29;1.90;;;1.40;;
20721;SDS011;10522;52.198;9.890;2023-02-03T08:51:55;4.57;;;2.07;;
20721;SDS011;10522;52.198;9.890;2023-02-03T08:54:22;4.27;;;2.93;;
20721;SDS011;10522;52.198;9.890;2023-02-03T08:56:48;5.57;;;3.10;;
20721;SDS011;10522;52.198;9.890;2023-02-03T08:59:14;5.83;;;3.33;;
20721;SDS011;10522;52.198;9.890;2023-02-03T09:01:40;8.43;;;3.17;;
20721;SDS011;10522;52.198;9.890;2023-02-03T09:04:14;11.97;;;3.50;;
20721;SDS011;10522;52.198;9.890;2023-02-03T09:06:48;4.37;;;2.83;;
20721;SDS011;10522;52.198;9.890;2023-02-03T09:09:18;5.63;;;3.13;;
20721;SDS011;10522;52.198;9.890;2023-02-03T09:11:44;6.37;;;3.77;;
20721;SDS011;10522;52.198;9.890;2023-02-03T09:14:10;8.60;;;3.83;;
20721;SDS011;10522;52.198;9.890;2023-02-03T09:16:35;6.00;;;4.07;;
20721;SDS011;10522;52.198;9.890;2023-02-03T09:19:01;10.07;;;4.67;;
20721;SDS011;10522;52.198;9.890;2023-02-03T09:21:27;6.20;;;3.83;;
20721;SDS011;10522;52.198;9.890;2023-02-03T09:23:52;4.63;;;3.93;;
20721;SDS011;10522;52.198;9.890;2023-02-03T09:26:18;5.63;;;3.23;;
20721;SDS011;10522;52.198;9.890;2023-02-03T09:28:43;8.10;;;3.43;;
20721;SDS011;10522;52.198;9.890;2023-02-03T09:31:10;9.60;;;4.70;;
20721;SDS011;10522;52.198;9.890;2023-02-03T09:33:37;11.73;;;4.40;;
20721;SDS011;10522;52.198;9.890;2023-02-03T09:36:03;10.87;;;4.37;;
20721;SDS011;10522;52.198;9.890;2023-02-03T09:38:30;6.03;;;3.77;;
20721;SDS011;10522;52.198;9.890;2023-02-03T09:46:31;6.03;;;3.63;;
20721;SDS011;10522;52.198;9.890;2023-02-03T09:49:05;7.73;;;3.00;;
20721;SDS011;10522;52.198;9.890;2023-02-03T09:51:49;4.83;;;2.97;;
20721;SDS011;10522;52.198;9.890;2023-02-03T09:54:23;11.83;;;3.83;;
20721;SDS011;10522;52.198;9.890;2023-02-03T09:56:55;8.67;;;4.17;;
20721;SDS011;10522;52.198;9.890;2023-02-03T09:59:24;5.77;;;2.43;;
20721;SDS011;10522;52.198;9.890;2023-02-03T10:01:57;8.37;;;3.63;;
20721;SDS011;10522;52.198;9.890;2023-02-03T10:04:41;11.37;;;2.90;;
20721;SDS011;10522;52.198;9.890;2023-02-03T10:07:18;7.50;;;2.47;;
20721;SDS011;10522;52.198;9.890;2023-02-03T10:10:00;5.10;;;2.47;;
20721;SDS011;10522;52.198;9.890;2023-02-03T10:18:27;5.67;;;2.43;;
20721;SDS011;10522;52.198;9.890;2023-02-03T10:20:59;4.27;;;1.73;;
20721;SDS011;10522;52.198;9.890;2023-02-03T10:23:29;6.67;;;1.30;;
20721;SDS011;10522;52.198;9.890;2023-02-03T10:26:04;5.00;;;1.17;;
20721;SDS011;10522;52.198;9.890;2023-02-03T10:28:38;4.33;;;1.20;;
20721;SDS011;10522;52.198;9.890;2023-02-03T10:31:13;4.77;;;1.50;;
20721;SDS011;10522;52.198;9.890;2023-02-03T10:33:46;2.83;;;1.30;;
20721;SDS011;10522;52.198;9.890;2023-02-03T10:36:22;4.87;;;1.30;;
20721;SDS011;10522;52.198;9.890;2023-02-03T10:41:38;2.63;;;1.50;;
20721;SDS011;10522;52.198;9.890;2023-02-03T10:44:04;7.97;;;1.50;;
20721;SDS011;10522;52.198;9.890;2023-02-03T10:46:32;1.97;;;0.97;;
20721;SDS011;10522;52.198;9.890;2023-02-03T10:49:00;6.00;;;2.03;;
20721;SDS011;10522;52.198;9.890;2023-02-03T10:51:33;3.20;;;1.40;;
20721;SDS011;10522;52.198;9.890;2023-02-03T10:54:03;1.53;;;1.10;;
20721;SDS011;10522;52.198;9.890;2023-02-03T10:56:34;2.93;;;1.30;;
20721;SDS011;10522;52.198;9.890;2023-02-03T10:59:01;3.47;;;1.37;;
20721;SDS011;10522;52.198;9.890;2023-02-03T11:01:39;4.30;;;1.20;;
20721;SDS011;10522;52.198;9.890;2023-02-03T11:04:23;3.90;;;1.10;;
20721;SDS011;10522;52.198;9.890;2023-02-03T11:09:29;5.93;;;1.70;;
20721;SDS011;10522;52.198;9.890;2023-02-03T11:12:04;5.13;;;0.90;;
20721;SDS011;10522;52.198;9.890;2023-02-03T11:14:34;2.00;;;0.80;;
20721;SDS011;10522;52.198;9.890;2023-02-03T11:17:08;2.77;;;1.10;;
20721;SDS011;10522;52.198;9.890;2023-02-03T11:19:42;5.90;;;1.13;;
20721;SDS011;10522;52.198;9.890;2023-02-03T11:22:10;7.80;;;1.50;;
20721;SDS011;10522;52.198;9.890;2023-02-03T11:24:38;2.60;;;1.20;;
20721;SDS011;10522;52.198;9.890;2023-02-03T11:27:08;6.83;;;1.90;;
20721;SDS011;10522;52.198;9.890;2023-02-03T11:29:38;4.37;;;1.00;;
20721;SDS011;10522;52.198;9.890;2023-02-03T11:32:20;5.50;;;1.40;;
20721;SDS011;10522;52.198;9.890;2023-02-03T11:35:02;5.33;;;1.20;;
20721;SDS011;10522;52.198;9.890;2023-02-03T11:37:42;8.50;;;2.57;;
20721;SDS011;10522;52.198;9.890;2023-02-03T11:40:22;12.33;;;2.20;;
20721;SDS011;10522;52.198;9.890;2023-02-03T11:45:38;8.50;;;3.10;;
20721;SDS011;10522;52.198;9.890;2023-02-03T11:48:27;4.03;;;1.40;;
20721;SDS011;10522;52.198;9.890;2023-02-03T12:03:10;9.57;;;2.57;;
20721;SDS011;10522;52.198;9.890;2023-02-03T12:05:30;5.13;;;1.77;;
20721;SDS011;10522;52.198;9.890;2023-02-03T12:08:08;15.27;;;2.77;;
20721;SDS011;10522;52.198;9.890;2023-02-03T12:19:13;10.47;;;2.77;;
20721;SDS011;10522;52.198;9.890;2023-02-03T12:24:51;12.80;;;2.33;;
20721;SDS011;10522;52.198;9.890;2023-02-03T12:27:34;7.90;;;1.97;;
20721;SDS011;10522;52.198;9.890;2023-02-03T12:30:11;8.47;;;2.53;;
20721;SDS011;10522;52.198;9.890;2023-02-03T12:32:47;11.17;;;2.43;;
20721;SDS011;10522;52.198;9.890;2023-02-03T12:35:29;14.87;;;3.97;;
20721;SDS011;10522;52.198;9.890;2023-02-03T12:38:02;6.80;;;2.37;;
20721;SDS011;10522;52.198;9.890;2023-02-03T12:48:44;10.33;;;3.80;;
20721;SDS011;10522;52.198;9.890;2023-02-03T12:51:35;11.10;;;2.87;;
20721;SDS011;10522;52.198;9.890;2023-02-03T12:54:12;10.13;;;2.40;;
20721;SDS011;10522;52.198;9.890;2023-02-03T12:56:53;13.87;;;3.77;;
20721;SDS011;10522;52.198;9.890;2023-02-03T12:59:24;13.97;;;2.77;;
20721;SDS011;10522;52.198;9.890;2023-02-03T13:04:34;13.50;;;2.83;;
20721;SDS011;10522;52.198;9.890;2023-02-03T13:07:58;8.90;;;2.80;;
20721;SDS011;10522;52.198;9.890;2023-02-03T13:10:33;15.60;;;3.10;;
20721;SDS011;10522;52.198;9.890;2023-02-03T13:13:07;18.90;;;2.63;;
20721;SDS011;10522;52.198;9.890;2023-02-03T13:15:39;14.30;;;3.03;;
20721;SDS011;10522;52.198;9.890;2023-02-03T13:18:17;9.53;;;1.70;;
20721;SDS011;10522;52.198;9.890;2023-02-03T13:20:55;15.03;;;3.20;;
20721;SDS011;10522;52.198;9.890;2023-02-03T13:23:21;18.63;;;3.17;;
20721;SDS011;10522;52.198;9.890;2023-02-03T13:34:41;16.67;;;2.67;;
20721;SDS011;10522;52.198;9.890;2023-02-03T13:42:32;15.37;;;2.67;;
20721;SDS011;10522;52.198;9.890;2023-02-03T13:45:23;8.97;;;1.97;;
20721;SDS011;10522;52.198;9.890;2023-02-03T13:48:26;9.70;;;2.60;;
20721;SDS011;10522;52.198;9.890;2023-02-03T13:51:04;12.67;;;2.40;;
20721;SDS011;10522;52.198;9.890;2023-02-03T13:53:37;6.10;;;2.13;;
20721;SDS011;10522;52.198;9.890;2023-02-03T13:56:06;11.53;;;2.83;;
20721;SDS011;10522;52.198;9.890;2023-02-03T13:58:34;13.23;;;2.07;;
20721;SDS011;10522;52.198;9.890;2023-02-03T14:01:44;10.13;;;2.53;;
20721;SDS011;10522;52.198;9.890;2023-02-03T14:04:03;15.27;;;2.93;;
20721;SDS011;10522;52.198;9.890;2023-02-03T14:08:59;13.03;;;3.03;;
20721;SDS011;10522;52.198;9.890;2023-02-03T14:19:02;10.50;;;2.27;;
20721;SDS011;10522;52.198;9.890;2023-02-03T14:21:28;10.77;;;2.47;;
20721;SDS011;10522;52.198;9.890;2023-02-03T14:24:06;9.67;;;2.13;;
20721;SDS011;10522;52.198;9.890;2023-02-03T14:29:03;8.93;;;2.00;;
20721;SDS011;10522;52.198;9.890;2023-02-03T14:31:30;13.47;;;2.23;;
20721;SDS011;10522;52.198;9.890;2023-02-03T14:36:44;14.87;;;3.33;;
20721;SDS011;10522;52.198;9.890;2023-02-03T14:58:48;8.77;;;2.23;;
20721;SDS011;10522;52.198;9.890;2023-02-03T15:09:23;12.97;;;2.90;;
20721;SDS011;10522;52.198;9.890;2023-02-03T15:11:59;12.30;;;3.00;;
20721;SDS011;10522;52.198;9.890;2023-02-03T15:14:28;9.90;;;2.17;;
20721;SDS011;10522;52.198;9.890;2023-02-03T15:17:01;22.63;;;3.17;;
20721;SDS011;10522;52.198;9.890;2023-02-03T15:19:37;11.80;;;2.00;;
20721;SDS011;10522;52.198;9.890;2023-02-03T15:24:49;9.37;;;2.23;;
20721;SDS011;10522;52.198;9.890;2023-02-03T15:27:20;27.27;;;2.87;;
20721;SDS011;10522;52.198;9.890;2023-02-03T15:29:53;17.80;;;3.10;;
20721;SDS011;10522;52.198;9.890;2023-02-03T15:32:23;12.77;;;2.80;;
20721;SDS011;10522;52.198;9.890;2023-02-03T15:34:53;15.67;;;3.90;;
20721;SDS011;10522;52.198;9.890;2023-02-03T15:39:59;9.87;;;2.00;;
20721;SDS011;10522;52.198;9.890;2023-02-03T15:45:00;7.20;;;2.33;;
20721;SDS011;10522;52.198;9.890;2023-02-03T15:47:38;15.40;;;3.90;;
20721;SDS011;10522;52.198;9.890;2023-02-03T15:50:15;17.67;;;3.50;;
20721;SDS011;10522;52.198;9.890;2023-02-03T15:52:51;18.10;;;2.73;;
20721;SDS011;10522;52.198;9.890;2023-02-03T15:55:41;16.90;;;4.33;;
20721;SDS011;10522;52.198;9.890;2023-02-03T15:58:13;20.30;;;2.83;;
20721;SDS011;10522;52.198;9.890;2023-02-03T16:00:42;11.03;;;2.37;;
20721;SDS011;10522;52.198;9.890;2023-02-03T16:03:18;13.40;;;2.00;;
20721;SDS011;10522;52.198;9.890;2023-02-03T16:05:47;14.80;;;3.30;;
20721;SDS011;10522;52.198;9.890;2023-02-03T16:08:27;15.07;;;2.37;;
20721;SDS011;10522;52.198;9.890;2023-02-03T16:10:56;10.00;;;3.57;;
20721;SDS011;10522;52.198;9.890;2023-02-03T16:13:22;23.70;;;4.77;;
20721;SDS011;10522;52.198;9.890;2023-02-03T16:15:56;14.10;;;2.90;;
20721;SDS011;10522;52.198;9.890;2023-02-03T16:18:24;21.23;;;3.33;;
20721;SDS011;10522;52.198;9.890;2023-02-03T16:20:50;14.83;;;2.30;;
20721;SDS011;10522;52.198;9.890;2023-02-03T16:23:23;18.50;;;3.10;;
20721;SDS011;10522;52.198;9.890;2023-02-03T16:28:27;11.53;;;2.30;;
20721;SDS011;10522;52.198;9.890;2023-02-03T16:31:15;18.13;;;3.03;;
20721;SDS011;10522;52.198;9.890;2023-02-03T16:34:01;11.30;;;3.03;;
20721;SDS011;10522;52.198;9.890;2023-02-03T16:36:53;13.90;;;3.50;;
20721;SDS011;10522;52.198;9.890;2023-02-03T16:39:37;14.30;;;2.13;;
20721;SDS011;10522;52.198;9.890;2023-02-03T16:42:21;13.50;;;2.77;;
20721;SDS011;10522;52.198;9.890;2023-02-03T16:45:11;13.70;;;2.53;;
20721;SDS011;10522;52.198;9.890;2023-02-03T16:47:59;12.93;;;2.97;;
20721;SDS011;10522;52.198;9.890;2023-02-03T16:50:44;13.90;;;3.33;;
20721;SDS011;10522;52.198;9.890;2023-02-03T16:53:27;14.57;;;3.30;;
20721;SDS011;10522;52.198;9.890;2023-02-03T16:55:55;14.73;;;3.03;;
20721;SDS011;10522;52.198;9.890;2023-02-03T16:58:22;17.77;;;4.10;;
20721;SDS011;10522;52.198;9.890;2023-02-03T17:00:49;23.73;;;2.97;;
20721;SDS011;10522;52.198;9.890;2023-02-03T17:03:19;11.33;;;1.90;;
20721;SDS011;10522;52.198;9.890;2023-02-03T17:05:47;16.60;;;2.70;;
20721;SDS011;10522;52.198;9.890;2023-02-03T17:08:14;22.30;;;3.07;;
20721;SDS011;10522;52.198;9.890;2023-02-03T17:10:42;7.43;;;2.60;;
20721;SDS011;10522;52.198;9.890;2023-02-03T17:13:08;13.60;;;3.43;;
20721;SDS011;10522;52.198;9.890;2023-02-03T17:15:38;18.57;;;4.40;;
20721;SDS011;10522;52.198;9.890;2023-02-03T17:18:11;18.97;;;3.60;;
20721;SDS011;10522;52.198;9.890;2023-02-03T17:20:39;12.17;;;2.67;;
20721;SDS011;10522;52.198;9.890;2023-02-03T17:23:06;16.30;;;3.70;;